Iwojima, Japan

8:36 AM ChST on February 15, 2016 (GMT +1000)
Iwojima Aero | | Change Station
CLOSE
Current Station
Airport
Location: Iwojima,
Elevation: 381 ft
Nearby Weather Stations

Elev 381 ft 24.78 °N, 141.32 °E | Updated 36 minutes ago

Mostly Cloudy
Mostly Cloudy
73 °F
Feels Like 73 °F
N
23
Wind Variable Wind from SSW
Gusts 34 mph

Today
High -- | Low -- °F
--% Chance of Precip.
Yesterday
High -- | Low -- °F
Precip. -- in
Pressure 29.98 in
Visibility 6.2 miles
Clouds Few 800 ft
Mostly Cloudy 1500 ft
Mostly Cloudy 10000 ft
Dew Point 68 °F
Humidity 83%
Rainfall 0.00 in
Snow Depth Not available.
7:09 AM 6:28 PM
Waxing Crescent, 46% visible
METAR RJAW 142200Z 20020G30KT 9999 FEW008 BKN015 BKN100 23/20 Q1015 RMK 1ST008 6CU015 7AC100 A2998
Pressure 29.98 in
Visibility 6.2 miles
Clouds Few 800 ft
Mostly Cloudy 1500 ft
Mostly Cloudy 10000 ft
Dew Point 68 °F
Humidity 83%
Rainfall 0.00 in
Snow Depth Not available.
7:09 AM 6:28 PM
Waxing Crescent, 46% visible
METAR RJAW 142200Z 20020G30KT 9999 FEW008 BKN015 BKN100 23/20 Q1015 RMK 1ST008 6CU015 7AC100 A2998

10-Day Weather Forecast

No radar image for this location.
×

Almanac

Astronomy

Feb. 15, 2016 Rise Set
Actual Time
Civil Twilight
Nautical Twilight
Astronomical Twilight
Moon
Length of Visible Light
Length of Day
Tomorrow will be .
, % of the Moon is Illuminated

Today's Extremes

Country Highs Country Lows

Community

WunderPhotos

Upload Photos

1,892,899 photos uploaded!

WunderBlog® & News

Nearby

Air Quality

  Air Quality AQ Index Pollutant
Not available.

Snow Depth

Station Depth Elevation

Earthquake Activity

City Distance Mag. Time & Date
Minimum magnitude displayed is 2.5.

Coastal Water Temperatures

Place Temperature

Stations

Nearby Weather Stations

Station Location Temp. Windchill Dew Point Humidity Wind Precip. Elev Updated Type